Time;durP1;ratioP1;P1;durP2;ratioP2;P2;SDS_P1;SDS_P2;PMS_P1;PMS_P2;Temp;Humidity;BMP_temperature;BMP_pressure;BME280_temperature;BME280_humidity;BME280_pressure;Samples;Min_cycle;Max_cycle;Signal;HPM_P1;HPM_P2
2022/06/30 00:00:06;;;;;;;4.88;3.88;;;;;;;16.17;100.00;101153.81;5019029;28;20599;-76
2022/06/30 00:02:31;;;;;;;7.45;3.50;;;;;;;16.12;100.00;101163.50;5021344;28;20063;-75
2022/06/30 00:04:57;;;;;;;10.63;3.47;;;;;;;16.11;100.00;101164.50;5021208;28;20100;-76
2022/06/30 00:07:22;;;;;;;8.97;5.10;;;;;;;16.15;100.00;101165.78;5021655;28;20061;-74
2022/06/30 00:09:48;;;;;;;7.13;3.70;;;;;;;16.12;100.00;101164.31;5020663;28;20025;-75
2022/06/30 00:12:13;;;;;;;4.35;3.25;;;;;;;16.06;100.00;101157.00;5019339;28;20057;-75
2022/06/30 00:14:39;;;;;;;6.10;4.00;;;;;;;16.06;100.00;101161.53;5021446;28;20079;-75
2022/06/30 00:17:05;;;;;;;6.45;3.92;;;;;;;16.02;100.00;101166.47;5018511;28;20061;-76
2022/06/30 00:19:32;;;;;;;10.55;3.65;;;;;;;16.02;100.00;101169.16;5020207;28;20030;-75
2022/06/30 00:21:57;;;;;;;5.05;3.90;;;;;;;16.07;100.00;101174.81;5019335;28;20044;-76
2022/06/30 00:24:24;;;;;;;4.45;3.80;;;;;;;16.10;100.00;101173.63;5003993;28;20128;-75
2022/06/30 00:26:49;;;;;;;;;;;;;;;16.09;100.00;101182.72;5020708;28;20037;-75
2022/06/30 00:29:14;;;;;;;;;;;;;;;16.06;100.00;101183.09;5003109;28;19924;-74
2022/06/30 00:31:40;;;;;;;10.10;4.63;;;;;;;16.03;100.00;101179.75;5022138;28;19921;-75
2022/06/30 00:34:05;;;;;;;6.20;4.07;;;;;;;16.02;100.00;101188.84;5020934;28;20029;-75
2022/06/30 00:36:31;;;;;;;7.17;3.87;;;;;;;16.06;100.00;101183.09;5015723;28;20033;-75
2022/06/30 00:38:56;;;;;;;8.80;5.20;;;;;;;16.09;100.00;101182.72;5019105;28;20784;-75
2022/06/30 00:41:21;;;;;;;5.40;4.23;;;;;;;16.11;100.00;101186.03;5019918;28;20042;-75
2022/06/30 00:43:48;;;;;;;6.93;3.53;;;;;;;16.10;100.00;101185.22;5021857;28;20025;-75
2022/06/30 00:46:14;;;;;;;;;;;;;;;16.08;100.00;101183.72;5018709;28;20056;-75
2022/06/30 00:48:41;;;;;;;12.75;4.60;;;;;;;16.01;100.00;101176.44;5014691;28;20060;-75
2022/06/30 00:51:07;;;;;;;5.55;4.13;;;;;;;16.00;100.00;101182.81;5016368;28;20049;-75
2022/06/30 00:53:36;;;;;;;6.47;4.32;;;;;;;16.01;100.00;101189.88;5020758;28;20025;-75
2022/06/30 00:56:06;;;;;;;7.63;4.93;;;;;;;16.03;100.00;101185.13;5019210;28;20559;-75
2022/06/30 00:58:38;;;;;;;5.88;4.38;;;;;;;16.14;100.00;101180.31;5011697;28;20017;-75
2022/06/30 01:01:06;;;;;;;6.05;4.22;;;;;;;16.12;100.00;101172.41;5017608;28;20037;-75
2022/06/30 01:03:33;;;;;;;8.00;4.15;;;;;;;16.10;100.00;101160.97;5011825;28;20052;-75
2022/06/30 01:06:00;;;;;;;8.88;4.03;;;;;;;16.06;100.00;101148.06;5019693;28;20037;-75
2022/06/30 01:08:25;;;;;;;10.02;4.00;;;;;;;16.03;100.00;101142.03;5021129;28;20032;-74
2022/06/30 01:13:35;;;;;;;7.57;4.18;;;;;;;15.92;100.00;101156.00;5015545;28;20156;-75
2022/06/30 01:16:01;;;;;;;5.15;4.13;;;;;;;15.93;100.00;101156.84;5015781;28;20290;-74
2022/06/30 01:18:26;;;;;;;5.83;3.90;;;;;;;15.88;100.00;101154.69;5019829;28;20033;-75
2022/06/30 01:20:52;;;;;;;7.10;3.70;;;;;;;15.86;100.00;101142.47;5002725;28;20338;-75
2022/06/30 01:23:17;;;;;;;8.30;4.38;;;;;;;15.83;100.00;101140.97;5018731;28;20375;-75
2022/06/30 01:25:43;;;;;;;5.13;3.93;;;;;;;15.85;100.00;101156.91;5016038;28;20037;-75
2022/06/30 01:28:08;;;;;;;8.45;4.22;;;;;;;15.85;100.00;101155.09;5016406;28;20041;-75
2022/06/30 01:30:34;;;;;;;6.70;4.30;;;;;;;15.84;100.00;101158.78;5014595;28;20030;-75
2022/06/30 01:32:59;;;;;;;8.35;4.72;;;;;;;15.86;100.00;101140.59;5001637;28;20412;-75
2022/06/30 01:35:25;;;;;;;8.87;4.70;;;;;;;15.88;100.00;101133.16;5019557;28;20029;-75
2022/06/30 01:37:54;;;;;;;5.25;4.68;;;;;;;15.90;100.00;101136.50;5019796;28;20056;-74
2022/06/30 01:40:21;;;;;;;8.05;4.90;;;;;;;15.85;100.00;101121.91;5016434;28;20106;-75
2022/06/30 01:42:47;;;;;;;8.90;4.78;;;;;;;15.92;100.00;101134.47;5014903;28;20037;-75
2022/06/30 01:45:13;;;;;;;7.55;5.05;;;;;;;15.90;100.00;101125.75;5018162;28;20036;-75
2022/06/30 01:47:39;;;;;;;6.63;4.85;;;;;;;15.90;100.00;101119.53;5000547;28;20120;-75
2022/06/30 01:50:06;;;;;;;6.45;4.70;;;;;;;15.85;100.00;101136.25;5016640;28;20034;-76
2022/06/30 01:52:32;;;;;;;9.82;5.07;;;;;;;15.80;100.00;101114.41;5020750;28;20061;-75
2022/06/30 01:54:57;;;;;;;10.10;5.40;;;;;;;15.80;100.00;101119.78;5017981;28;20493;-75
2022/06/30 01:57:23;;;;;;;7.37;4.53;;;;;;;15.78;100.00;101120.00;5019956;28;20041;-75
2022/06/30 01:59:48;;;;;;;9.60;4.85;;;;;;;15.77;100.00;101120.19;5019852;28;20021;-75
2022/06/30 02:02:14;;;;;;;10.03;4.87;;;;;;;15.73;100.00;101116.19;5018527;28;20073;-75
2022/06/30 02:04:50;;;;;;;9.43;5.57;;;;;;;15.70;100.00;101113.84;5018791;28;20573;-75
2022/06/30 02:07:17;;;;;;;7.78;4.97;;;;;;;15.69;100.00;101120.25;5016899;28;20285;-75
2022/06/30 02:09:44;;;;;;;8.85;5.45;;;;;;;15.62;100.00;101118.31;5020525;28;20044;-75
2022/06/30 02:14:54;;;;;;;9.05;5.28;;;;;;;15.56;100.00;101118.22;5016233;28;20030;-75
2022/06/30 02:17:19;;;;;;;8.80;4.95;;;;;;;15.52;100.00;101112.38;5019196;28;20370;-75
2022/06/30 02:19:45;;;;;;;8.83;5.57;;;;;;;15.56;100.00;101119.03;5015804;28;20044;-75
2022/06/30 02:22:11;;;;;;;6.23;5.17;;;;;;;15.51;100.00;101109.88;5018389;28;20041;-76
2022/06/30 02:24:36;;;;;;;9.90;5.43;;;;;;;15.51;100.00;101118.75;5014566;28;20379;-75
2022/06/30 02:27:02;;;;;;;11.73;5.07;;;;;;;15.52;100.00;101122.28;5008698;28;20049;-75
2022/06/30 02:29:27;;;;;;;12.05;6.43;;;;;;;15.49;100.00;101128.88;5019623;28;20103;-75
2022/06/30 02:31:53;;;;;;;8.43;5.03;;;;;;;15.49;100.00;101128.88;5017769;28;20087;-75
2022/06/30 02:34:19;;;;;;;7.78;5.60;;;;;;;15.45;100.00;101132.94;5017556;28;20041;-75
2022/06/30 02:36:44;;;;;;;8.55;5.53;;;;;;;15.44;100.00;101135.84;5018598;28;20122;-75
2022/06/30 02:39:10;;;;;;;8.13;5.37;;;;;;;15.38;100.00;101132.03;5008150;28;20065;-75
2022/06/30 02:41:35;;;;;;;7.70;5.20;;;;;;;15.38;100.00;101127.50;5020044;28;20624;-75
2022/06/30 02:44:02;;;;;;;10.53;5.50;;;;;;;15.37;100.00;101128.50;5017095;28;20033;-75
2022/06/30 02:46:28;;;;;;;12.73;5.72;;;;;;;15.37;100.00;101133.06;5019498;28;20885;-75
2022/06/30 02:48:53;;;;;;;9.32;5.45;;;;;;;15.37;100.00;101131.19;5011860;28;20120;-75
2022/06/30 02:51:18;;;;;;;10.07;5.13;;;;;;;15.37;100.00;101120.44;5017097;28;20503;-74
2022/06/30 02:53:44;;;;;;;9.63;5.73;;;;;;;15.35;100.00;101121.63;5019891;28;20438;-75
2022/06/30 02:56:11;;;;;;;6.70;5.10;;;;;;;15.36;100.00;101129.53;5015685;28;20037;-75
2022/06/30 02:58:37;;;;;;;6.57;4.80;;;;;;;15.38;100.00;101119.44;5019747;28;20068;-75
2022/06/30 03:01:02;;;;;;;6.20;5.60;;;;;;;15.41;100.00;101118.22;5017042;28;20056;-75
2022/06/30 03:03:28;;;;;;;8.73;5.60;;;;;;;15.42;100.00;101111.81;5018297;28;20037;-75
2022/06/30 03:05:53;;;;;;;8.17;6.20;;;;;;;15.40;100.00;101108.47;5018624;28;20032;-76
2022/06/30 03:08:19;;;;;;;6.90;5.20;;;;;;;15.40;100.00;101108.47;5016774;28;20507;-75
2022/06/30 03:10:44;;;;;;;6.50;4.50;;;;;;;15.41;100.00;101116.34;5019647;28;20486;-75
2022/06/30 03:13:10;;;;;;;13.30;5.97;;;;;;;15.44;100.00;101111.63;4999261;28;20037;-76
2022/06/30 03:15:36;;;;;;;10.20;5.10;;;;;;;15.48;100.00;101119.16;5019855;28;20029;-75
2022/06/30 03:18:01;;;;;;;8.63;5.20;;;;;;;15.47;100.00;101104.00;4999655;28;20485;-75
2022/06/30 03:20:27;;;;;;;13.27;5.10;;;;;;;15.53;100.00;101107.81;5001863;28;20016;-75
2022/06/30 03:22:52;;;;;;;8.00;4.70;;;;;;;15.55;100.00;101108.47;5018604;28;20033;-75
2022/06/30 03:25:17;;;;;;;6.23;4.77;;;;;;;15.59;100.00;101107.91;5016936;28;20033;-75
2022/06/30 03:27:43;;;;;;;9.67;5.27;;;;;;;15.59;100.00;101113.31;5018423;28;20033;-75
2022/06/30 03:30:09;;;;;;;8.57;5.63;;;;;;;15.58;100.00;101106.25;4999178;28;20285;-76
2022/06/30 03:32:34;;;;;;;7.20;5.68;;;;;;;15.60;100.00;101101.50;5019577;28;20517;-76
2022/06/30 03:34:59;;;;;;;12.97;5.80;;;;;;;15.65;100.00;101108.19;5015163;28;20057;-75
2022/06/30 03:37:25;;;;;;;9.13;5.17;;;;;;;15.64;100.00;101099.28;5018981;28;20034;-75
2022/06/30 03:39:50;;;;;;;5.50;4.83;;;;;;;15.62;100.00;101091.41;5016965;28;20030;-75
2022/06/30 03:42:16;;;;;;;8.47;4.60;;;;;;;15.67;100.00;101087.31;5017848;28;20040;-75
2022/06/30 03:44:41;;;;;;;9.23;4.63;;;;;;;15.68;100.00;101079.03;5018109;28;20030;-75
2022/06/30 03:47:07;;;;;;;12.27;5.10;;;;;;;15.71;100.00;101084.09;5017493;28;20450;-75
2022/06/30 03:49:33;;;;;;;6.73;5.50;;;;;;;15.76;100.00;101080.84;5018247;28;20470;-75
2022/06/30 03:51:58;;;;;;;16.58;5.72;;;;;;;15.84;100.00;101078.00;5016799;28;20040;-76
2022/06/30 03:54:23;;;;;;;9.97;5.50;;;;;;;15.93;100.00;101073.38;5015028;28;20059;-75
2022/06/30 03:56:49;;;;;;;6.63;4.50;;;;;;;16.01;100.00;101076.78;5020991;28;20057;-75
2022/06/30 03:59:14;;;;;;;8.43;5.73;;;;;;;16.09;100.00;101069.59;5013260;28;20444;-76
2022/06/30 04:01:40;;;;;;;11.87;6.10;;;;;;;16.16;100.00;101067.81;5019612;28;20507;-75
2022/06/30 04:04:05;;;;;;;10.15;4.85;;;;;;;16.30;100.00;101061.53;5022448;28;20447;-75
2022/06/30 04:06:31;;;;;;;15.90;4.97;;;;;;;16.42;100.00;101065.38;5016839;28;20030;-77
2022/06/30 04:08:56;;;;;;;7.43;4.43;;;;;;;16.54;100.00;101073.78;5015857;28;20289;-76
2022/06/30 04:11:22;;;;;;;10.37;5.90;;;;;;;16.60;100.00;101058.66;5009295;28;20426;-76
2022/06/30 04:13:47;;;;;;;13.07;5.00;;;;;;;16.65;100.00;101050.84;5019180;28;20067;-76
2022/06/30 04:16:13;;;;;;;9.13;5.63;;;;;;;16.74;100.00;101055.09;5009490;28;20693;-75
2022/06/30 04:18:38;;;;;;;12.00;5.27;;;;;;;16.83;100.00;101061.16;5021075;28;20025;-76
2022/06/30 04:21:03;;;;;;;5.23;4.10;;;;;;;16.84;100.00;101057.47;5014847;28;20038;-75
2022/06/30 04:23:29;;;;;;;9.70;5.07;;;;;;;16.85;100.00;101049.16;5007973;28;20093;-75
2022/06/30 04:25:54;;;;;;;8.17;5.00;;;;;;;16.99;100.00;101060.03;5022579;28;20029;-75
2022/06/30 04:28:20;;;;;;;10.10;5.30;;;;;;;17.02;100.00;101055.09;5016778;28;20033;-75
2022/06/30 04:33:29;;;;;;;14.55;5.93;;;;;;;17.19;100.00;101071.81;5008625;28;20042;-76
2022/06/30 04:35:54;;;;;;;8.73;4.77;;;;;;;17.14;100.00;101059.94;5019327;28;20029;-75
2022/06/30 04:38:20;;;;;;;12.73;5.00;;;;;;;17.31;100.00;101069.38;5019337;28;20033;-75
2022/06/30 04:43:29;;;;;;;8.02;5.13;;;;;;;17.52;100.00;101063.06;5017046;28;20045;-76
2022/06/30 04:45:55;;;;;;;12.47;4.50;;;;;;;17.61;100.00;101056.47;5018783;28;20025;-74
2022/06/30 04:48:20;;;;;;;8.43;5.53;;;;;;;17.69;100.00;101050.03;5016922;28;20784;-74
2022/06/30 04:50:46;;;;;;;7.37;4.70;;;;;;;17.74;100.00;101052.97;5019734;28;20300;-75
2022/06/30 04:53:11;;;;;;;9.07;5.30;;;;;;;17.74;100.00;101052.97;5001083;28;20454;-76
2022/06/30 04:55:37;;;;;;;8.23;4.40;;;;;;;17.73;100.00;101057.53;5015181;28;20022;-75
2022/06/30 04:58:03;;;;;;;10.80;5.15;;;;;;;17.90;100.00;101051.81;5016104;28;20123;-75
2022/06/30 05:00:28;;;;;;;8.68;4.75;;;;;;;17.92;100.00;101042.47;5020331;28;20018;-75
2022/06/30 05:02:53;;;;;;;6.45;4.10;;;;;;;18.09;100.00;101044.78;5015097;28;20475;-76
2022/06/30 05:05:19;;;;;;;8.53;4.70;;;;;;;18.12;100.00;101037.13;5000521;28;20903;-75
2022/06/30 05:07:45;;;;;;;8.68;4.93;;;;;;;18.02;100.00;101039.34;5021736;28;20030;-75
2022/06/30 05:10:10;;;;;;;15.90;4.70;;;;;;;18.26;100.00;101039.81;5003796;28;20033;-74
2022/06/30 05:12:36;;;;;;;6.43;4.20;;;;;;;18.37;100.00;101036.50;5014556;28;20049;-75
2022/06/30 05:15:01;;;;;;;9.73;4.23;;;;;;;18.33;100.00;101032.53;5015022;28;20030;-75
2022/06/30 05:17:27;;;;;;;6.13;3.45;;;;;;;18.61;100.00;101032.34;5017630;28;20105;-75
2022/06/30 05:19:52;;;;;;;8.60;3.55;;;;;;;18.44;100.00;100999.50;5016759;28;20398;-75
2022/06/30 05:22:18;;;;;;;10.80;4.00;;;;;;;18.56;100.00;101008.63;5024169;28;20029;-76
2022/06/30 05:27:27;;;;;;;6.30;3.25;;;;;;;18.85;100.00;101009.28;5017699;28;20040;-75
2022/06/30 05:29:54;;;;;;;9.80;3.83;;;;;;;18.74;100.00;101008.00;5018814;28;20022;-77
2022/06/30 05:32:20;;;;;;;5.50;3.67;;;;;;;18.24;100.00;101004.06;5015487;28;20037;-77
2022/06/30 05:34:45;;;;;;;7.07;3.63;;;;;;;18.14;100.00;101029.63;5015747;28;20030;-75
2022/06/30 05:37:11;;;;;;;8.37;3.40;;;;;;;18.33;100.00;101057.72;5014330;28;20045;-75
2022/06/30 05:39:36;;;;;;;5.65;3.70;;;;;;;18.44;100.00;101056.25;5014198;28;20519;-75
2022/06/30 05:42:02;;;;;;;9.07;4.87;;;;;;;18.42;100.00;101055.63;5013552;28;20095;-75
2022/06/30 05:44:29;;;;;;;6.95;3.95;;;;;;;18.37;100.00;101047.31;5019533;28;20594;-74
2022/06/30 05:46:54;;;;;;;8.40;4.22;;;;;;;18.31;100.00;101042.75;5014038;28;20038;-75
2022/06/30 05:49:21;;;;;;;8.43;3.65;;;;;;;18.36;100.00;101051.06;5019503;28;20581;-75
2022/06/30 05:51:47;;;;;;;7.82;3.50;;;;;;;18.61;100.00;101058.56;5014130;28;20037;-75
2022/06/30 05:54:12;;;;;;;5.80;3.60;;;;;;;18.77;100.00;101047.34;5019353;28;20387;-76
2022/06/30 05:56:38;;;;;;;4.93;3.00;;;;;;;18.72;100.00;101042.53;5017321;28;20025;-75
2022/06/30 05:59:03;;;;;;;8.47;3.87;;;;;;;18.81;100.00;101040.50;5015218;28;20030;-76
2022/06/30 06:01:28;;;;;;;5.20;3.53;;;;;;;18.71;100.00;101029.25;5013855;28;20057;-76
2022/06/30 06:03:54;;;;;;;7.37;3.40;;;;;;;18.90;100.00;101046.53;4997564;28;20032;-76
2022/06/30 06:06:19;;;;;;;6.53;3.50;;;;;;;18.86;100.00;101040.69;5017122;28;20087;-76
2022/06/30 06:08:44;;;;;;;4.43;3.47;;;;;;;19.43;100.00;101035.53;5016904;28;20386;-75
2022/06/30 06:11:10;;;;;;;6.70;2.90;;;;;;;19.66;100.00;100994.41;5016306;28;20045;-75
2022/06/30 06:13:35;;;;;;;5.17;2.90;;;;;;;20.80;100.00;100986.31;5015147;28;20032;-76
2022/06/30 06:16:01;;;;;;;7.90;3.57;;;;;;;22.32;100.00;100876.59;5013798;28;20137;-76
2022/06/30 06:18:26;;;;;;;5.10;2.23;;;;;;;22.65;100.00;100671.88;5015658;28;20145;-75
2022/06/30 06:20:51;;;;;;;3.40;2.37;;;;;;;21.70;100.00;100627.88;5016302;28;20430;-77
2022/06/30 06:23:17;;;;;;;3.10;2.33;;;;;;;21.15;100.00;100727.81;5016464;28;20040;-76
2022/06/30 06:25:42;;;;;;;6.93;2.03;;;;;;;20.63;100.00;100731.09;5015412;28;20041;-76
2022/06/30 06:30:51;;;;;;;8.43;2.42;;;;;;;20.30;100.00;100781.09;5018642;28;20068;-76
2022/06/30 06:33:17;;;;;;;8.73;2.63;;;;;;;20.11;100.00;100769.44;5017006;28;20502;-75
2022/06/30 06:35:42;;;;;;;8.48;2.65;;;;;;;20.11;100.00;100817.38;5017755;28;20025;-76
2022/06/30 06:38:08;;;;;;;5.47;2.23;;;;;;;20.17;100.00;100803.75;5017127;28;20034;-75
2022/06/30 06:40:33;;;;;;;5.97;2.77;;;;;;;20.23;100.00;100846.22;5020349;28;20414;-76
2022/06/30 06:42:58;;;;;;;4.73;2.37;;;;;;;20.48;100.00;100839.91;5018573;28;20107;-76
2022/06/30 06:45:24;;;;;;;5.73;2.53;;;;;;;20.41;100.00;100855.44;5007486;28;20594;-75
2022/06/30 06:47:49;;;;;;;4.33;2.70;;;;;;;20.70;100.00;100856.59;5012931;28;20122;-75
2022/06/30 06:50:15;;;;;;;6.73;2.40;;;;;;;20.10;100.00;100865.31;5017130;28;20312;-75
2022/06/30 06:52:40;;;;;;;2.93;2.03;;;;;;;19.94;100.00;100855.03;5018966;28;20036;-75
2022/06/30 06:55:06;;;;;;;5.97;2.53;;;;;;;20.11;100.00;100888.69;5005176;28;20060;-75
2022/06/30 06:57:39;;;;;;;2.67;2.15;;;;;;;20.51;100.00;100846.75;5018835;28;20160;-75
2022/06/30 07:00:06;;;;;;;3.53;2.40;;;;;;;20.82;100.00;100810.56;5016048;28;20042;-76
2022/06/30 07:02:32;;;;;;;8.48;2.20;;;;;;;20.64;100.00;100749.81;4986196;28;20071;-76
2022/06/30 07:04:57;;;;;;;3.10;1.80;;;;;;;20.62;100.00;100646.16;5000614;28;20095;-76
2022/06/30 07:07:22;;;;;;;6.73;2.00;;;;;;;20.83;100.00;100681.97;5018980;28;20484;-76
2022/06/30 07:09:48;;;;;;;4.33;1.90;;;;;;;20.53;100.00;100639.38;5019115;28;20026;-76
2022/06/30 07:12:13;;;;;;;5.00;1.80;;;;;;;20.89;100.00;100729.06;5016758;28;20627;-75
2022/06/30 07:14:39;;;;;;;6.40;3.10;;;;;;;21.12;100.00;100614.28;5018562;28;20451;-76
2022/06/30 07:17:04;;;;;;;4.63;2.57;;;;;;;21.13;100.00;100594.22;5000896;28;20558;-76
2022/06/30 07:19:30;;;;;;;5.07;2.20;;;;;;;21.15;100.00;100763.13;5015975;28;20033;-75
2022/06/30 07:21:55;;;;;;;5.43;2.20;;;;;;;21.65;100.00;100806.22;5016521;28;20549;-75
2022/06/30 07:24:20;;;;;;;5.37;2.00;;;;;;;22.25;100.00;100756.25;5017182;28;20410;-76
2022/06/30 07:26:46;;;;;;;2.70;1.83;;;;;;;21.90;100.00;100586.69;5018210;28;20061;-76
2022/06/30 07:29:12;;;;;;;6.97;1.70;;;;;;;22.08;100.00;100623.75;5018556;28;20030;-76
2022/06/30 07:31:38;;;;;;;7.68;2.30;;;;;;;21.28;100.00;100494.94;5023699;28;20471;-76
2022/06/30 07:34:03;;;;;;;1.87;1.60;;;;;;;21.54;100.00;100653.03;5017538;28;20038;-76
2022/06/30 07:36:28;;;;;;;4.13;1.63;;;;;;;21.77;100.00;100637.75;5016122;28;20401;-76
2022/06/30 07:38:54;;;;;;;5.53;1.90;;;;;;;21.46;100.00;100501.31;5014800;28;20052;-76
2022/06/30 07:41:20;;;;;;;3.63;1.83;;;;;;;21.84;100.00;100579.47;5020238;28;20495;-76
2022/06/30 07:43:46;;;;;;;3.67;1.70;;;;;;;22.39;100.00;100601.78;5017123;28;20550;-76
2022/06/30 07:46:14;;;;;;;3.40;1.48;;;;;;;22.27;96.99;100387.84;5013457;28;20039;-76
2022/06/30 07:48:40;;;;;;;3.63;1.90;;;;;;;22.54;98.36;100480.44;5014793;28;20041;-75
2022/06/30 07:51:06;;;;;;;3.15;1.73;;;;;;;22.25;99.74;100471.53;5014817;28;20037;-75
2022/06/30 07:53:31;;;;;;;3.10;1.60;;;;;;;22.51;100.00;100518.19;5021951;28;20398;-76
2022/06/30 07:55:57;;;;;;;4.07;1.30;;;;;;;22.49;94.98;100433.28;5021234;28;20022;-76
2022/06/30 07:58:22;;;;;;;9.30;1.90;;;;;;;22.51;93.17;100401.22;5020780;28;20046;-76
2022/06/30 08:00:47;;;;;;;2.50;1.70;;;;;;;22.33;95.02;100419.44;5021151;28;20386;-76
2022/06/30 08:03:13;;;;;;;8.70;2.43;;;;;;;22.51;99.42;100548.13;5019720;28;20037;-75
2022/06/30 08:05:39;;;;;;;3.00;1.75;;;;;;;23.18;93.16;100523.59;5021900;28;20117;-75
2022/06/30 08:08:04;;;;;;;4.47;2.13;;;;;;;23.14;87.07;100396.38;5020148;28;20069;-75
2022/06/30 08:10:30;;;;;;;2.60;1.45;;;;;;;23.05;83.88;100338.81;5021665;28;20087;-75
2022/06/30 08:12:55;;;;;;;2.67;1.57;;;;;;;22.90;82.47;100298.63;5021392;28;20060;-75
2022/06/30 08:15:21;;;;;;;4.77;2.43;;;;;;;23.33;87.62;100531.13;5013029;28;20091;-75
2022/06/30 08:17:46;;;;;;;;;;;;;;;23.50;83.14;100457.50;5021236;28;20040;-75
2022/06/30 08:20:12;;;;;;;5.05;1.65;;;;;;;23.06;82.79;100378.59;5015982;28;19909;-75
2022/06/30 08:22:37;;;;;;;5.78;1.77;;;;;;;23.02;82.42;100365.75;5021456;28;20068;-75
2022/06/30 08:25:03;;;;;;;2.90;1.80;;;;;;;22.41;86.78;100354.84;5020257;28;20160;-75
2022/06/30 08:27:28;;;;;;;2.83;1.90;;;;;;;23.39;87.75;100551.13;5022512;28;20406;-75
2022/06/30 08:29:54;;;;;;;4.47;1.75;;;;;;;24.29;76.91;100464.31;5020468;28;20615;-75
2022/06/30 08:32:19;;;;;;;4.50;1.50;;;;;;;24.19;75.71;100417.88;5019880;28;20431;-74
2022/06/30 08:34:45;;;;;;;3.87;2.23;;;;;;;24.86;71.55;100419.13;5004562;28;20268;-74
2022/06/30 08:37:10;;;;;;;4.95;1.63;;;;;;;25.50;68.17;100437.16;5018348;28;20259;-74
2022/06/30 08:42:21;;;;;;;3.38;1.55;;;;;;;26.81;62.58;100453.09;5017237;28;20281;-74
2022/06/30 08:47:32;;;;;;;8.45;3.03;;;;;;;25.62;61.13;100177.25;5015778;28;20064;-76
2022/06/30 08:49:58;;;;;;;4.07;2.00;;;;;;;25.03;62.77;100160.34;5018877;28;20061;-75
2022/06/30 08:52:25;;;;;;;4.40;1.98;;;;;;;24.87;64.70;100198.84;5021503;28;20052;-76
2022/06/30 08:54:51;;;;;;;4.88;2.00;;;;;;;25.05;66.49;100326.63;5021144;28;20026;-75
2022/06/30 08:57:17;;;;;;;;;;;;;;;25.34;68.40;100421.81;5019425;28;20061;-75
2022/06/30 08:59:43;;;;;;;3.97;1.70;;;;;;;25.43;66.18;100362.84;5021763;28;20400;-75
2022/06/30 09:02:08;;;;;;;3.35;1.80;;;;;;;26.08;62.71;100363.97;5017902;28;20033;-75
2022/06/30 09:04:34;;;;;;;5.03;2.50;;;;;;;24.84;63.94;100164.69;5022073;28;20445;-76
2022/06/30 09:06:59;;;;;;;6.70;1.88;;;;;;;24.95;63.82;100179.16;5018242;28;20494;-75
2022/06/30 09:09:25;;;;;;;5.00;1.88;;;;;;;24.99;64.89;100256.72;5020052;28;20029;-76
2022/06/30 09:11:55;;;;;;;5.75;2.35;;;;;;;24.76;63.69;100168.78;5019668;28;20258;-75
2022/06/30 09:14:31;;;;;;;5.30;2.10;;;;;;;26.33;62.66;100431.50;5020683;28;20523;-75
2022/06/30 09:16:58;;;;;;;2.88;1.50;;;;;;;25.49;59.45;100134.91;5019850;28;20033;-75
2022/06/30 09:19:23;;;;;;;4.57;2.00;;;;;;;26.09;59.27;100252.63;5019453;28;20201;-76
2022/06/30 09:22:06;;;;;;;3.60;1.90;;;;;;;26.35;60.32;100332.72;5020992;28;20364;-75
2022/06/30 09:24:31;;;;;;;4.30;2.15;;;;;;;26.40;57.70;100230.63;5011364;28;20410;-75
2022/06/30 09:27:16;;;;;;;4.13;1.85;;;;;;;26.69;57.11;100252.69;5019739;28;20036;-75
2022/06/30 09:30:04;;;;;;;3.90;1.95;;;;;;;27.90;53.81;100295.97;5011053;28;20029;-75
2022/06/30 09:32:42;;;;;;;7.00;2.15;;;;;;;27.01;56.78;100265.13;5009354;28;20045;-75
2022/06/30 09:35:10;;;;;;;4.35;1.98;;;;;;;26.92;54.36;100136.97;5018513;28;20107;-75
2022/06/30 09:37:36;;;;;;;2.50;2.08;;;;;;;26.78;56.74;100228.28;5021080;28;20026;-75
2022/06/30 09:40:02;;;;;;;2.45;2.13;;;;;;;27.15;55.17;100252.41;5001387;28;20037;-75
2022/06/30 09:42:40;;;;;;;2.90;1.80;;;;;;;26.47;53.89;100007.53;5019404;28;20485;-76
2022/06/30 09:45:08;;;;;;;2.40;2.20;;;;;;;25.43;58.30;100021.28;5000480;28;20358;-75
2022/06/30 09:47:34;;;;;;;4.82;1.90;;;;;;;25.27;63.52;100201.59;5020384;28;20021;-75
2022/06/30 09:50:01;;;;;;;;;;;;;;;24.88;63.60;100140.41;5001617;28;20052;-75
2022/06/30 09:52:27;;;;;;;8.77;1.92;;;;;;;25.62;62.02;100235.47;5019124;28;19915;-76
2022/06/30 09:54:55;;;;;;;3.33;1.60;;;;;;;24.96;64.83;100198.03;5017956;28;20029;-75
2022/06/30 09:57:26;;;;;;;3.33;1.85;;;;;;;26.37;61.72;100385.28;5015520;28;20030;-75
2022/06/30 09:59:58;;;;;;;3.85;2.03;;;;;;;26.44;55.36;100089.41;5019057;28;20498;-76
2022/06/30 10:02:29;;;;;;;4.20;1.67;;;;;;;26.30;57.58;100174.84;5016325;28;20044;-76
2022/06/30 10:04:57;;;;;;;1.90;1.55;;;;;;;27.30;56.62;100342.78;5001827;28;20033;-75
2022/06/30 10:07:23;;;;;;;4.18;1.98;;;;;;;26.92;54.56;100117.00;5018872;28;20034;-76
2022/06/30 10:09:49;;;;;;;;;;;;;;;26.48;55.66;100095.94;5016694;28;20022;-76
2022/06/30 10:12:17;;;;;;;4.00;2.05;;;;;;;26.27;56.74;100133.53;5017973;28;19910;-76
2022/06/30 10:14:44;;;;;;;2.13;1.90;;;;;;;27.03;54.51;100175.25;5017181;28;20088;-76
2022/06/30 10:17:13;;;;;;;6.05;2.53;;;;;;;27.34;53.57;100190.34;5017770;28;20032;-76
2022/06/30 10:19:40;;;;;;;2.70;1.45;;;;;;;27.19;52.31;100078.13;5019501;28;20030;-75
2022/06/30 10:22:05;;;;;;;4.65;2.08;;;;;;;27.83;51.30;100146.56;5000604;28;20151;-76
2022/06/30 10:24:31;;;;;;;2.95;2.13;;;;;;;26.56;52.52;99922.13;5019614;28;20064;-76
2022/06/30 10:27:12;;;;;;;4.70;1.90;;;;;;;26.74;54.13;100091.16;5020612;28;20035;-76
2022/06/30 10:29:40;;;;;;;3.90;1.65;;;;;;;26.99;52.42;100035.31;5005983;28;20037;-76
2022/06/30 10:32:24;;;;;;;4.72;1.90;;;;;;;27.42;51.35;100062.84;5019867;28;20049;-76
2022/06/30 10:34:57;;;;;;;1.98;1.67;;;;;;;28.38;48.36;100076.41;5017489;28;20052;-76
2022/06/30 10:37:39;;;;;;;5.80;1.98;;;;;;;28.44;47.50;100029.66;5002063;28;20441;-76
2022/06/30 10:40:24;;;;;;;3.20;1.73;;;;;;;29.30;48.01;100252.78;5019124;28;20025;-76
2022/06/30 10:42:56;;;;;;;6.63;2.33;;;;;;;28.80;45.96;99925.56;5013882;28;20143;-77
2022/06/30 10:45:30;;;;;;;3.28;1.70;;;;;;;28.35;49.16;100107.22;4998949;28;20041;-76
2022/06/30 10:48:06;;;;;;;3.42;1.77;;;;;;;28.38;46.95;99928.19;5017251;28;20033;-76
2022/06/30 10:50:37;;;;;;;3.67;1.80;;;;;;;29.07;46.79;100069.56;5006407;28;20523;-76
2022/06/30 10:53:04;;;;;;;3.75;1.90;;;;;;;28.70;48.47;100135.25;5019644;28;20040;-76
2022/06/30 10:55:45;;;;;;;3.08;1.88;;;;;;;28.85;47.17;100051.00;5006057;28;20022;-76
2022/06/30 10:58:11;;;;;;;2.70;2.10;;;;;;;28.13;47.78;99921.19;5013517;28;20037;-78
2022/06/30 11:00:43;;;;;;;2.67;1.70;;;;;;;28.05;47.50;99867.03;5016034;28;20013;-76
2022/06/30 11:03:09;;;;;;;2.63;2.13;;;;;;;28.91;47.97;100119.25;5017523;28;20036;-76
2022/06/30 11:05:48;;;;;;;4.25;2.10;;;;;;;28.56;48.15;100063.81;5018767;28;20464;-76
2022/06/30 11:08:36;;;;;;;2.88;2.28;;;;;;;28.32;47.94;100077.59;5014626;28;20538;-76
2022/06/30 11:11:19;;;;;;;2.47;1.70;;;;;;;28.76;48.30;100207.44;5017743;28;20056;-75
2022/06/30 11:13:46;;;;;;;3.38;1.88;;;;;;;28.88;46.89;100097.91;5013133;28;20206;-76
2022/06/30 11:16:15;;;;;;;3.70;1.73;;;;;;;30.03;45.59;100234.72;5016552;28;20564;-76
2022/06/30 11:18:41;;;;;;;2.83;1.90;;;;;;;29.37;45.24;100036.03;5018833;28;20041;-77
2022/06/30 11:21:07;;;;;;;4.30;1.90;;;;;;;28.99;43.83;99821.84;5019733;28;20036;-76
2022/06/30 11:23:38;;;;;;;;;;;;;;;28.69;46.52;99977.09;4996600;28;20680;-77
2022/06/30 11:28:51;;;;;;;3.67;1.90;;;;;;;29.42;46.40;100170.63;5017701;28;20411;-76
2022/06/30 11:31:23;;;;;;;2.13;1.70;;;;;;;29.69;45.18;100114.09;5017523;28;20026;-76
2022/06/30 11:33:57;;;;;;;3.58;1.95;;;;;;;29.81;44.07;100023.59;5015903;28;20037;-76
2022/06/30 11:36:23;;;;;;;4.07;2.10;;;;;;;28.54;48.22;100066.06;5014377;28;20394;-76
2022/06/30 11:38:56;;;;;;;3.80;2.08;;;;;;;28.69;47.63;100037.50;5012482;28;20021;-77
2022/06/30 11:44:07;;;;;;;5.63;2.78;;;;;;;27.59;48.91;99862.25;5017601;28;20046;-76
2022/06/30 11:46:54;;;;;;;4.40;2.15;;;;;;;27.45;49.30;99894.25;5015792;28;20028;-76